sensor_id;sensor_type;location;lat;lon;timestamp;P1;durP1;ratioP1;P2;durP2;ratioP2
17382;SDS011;8809;51.892;8.384;2023-08-24T00:02:18;5.75;;;5.05;;
17382;SDS011;8809;51.892;8.384;2023-08-24T00:04:45;4.90;;;4.50;;
17382;SDS011;8809;51.892;8.384;2023-08-24T00:07:12;5.32;;;4.70;;
17382;SDS011;8809;51.892;8.384;2023-08-24T00:09:40;5.25;;;4.75;;
17382;SDS011;8809;51.892;8.384;2023-08-24T00:12:07;5.50;;;5.00;;
17382;SDS011;8809;51.892;8.384;2023-08-24T00:14:35;5.50;;;5.00;;
17382;SDS011;8809;51.892;8.384;2023-08-24T00:17:03;4.80;;;4.40;;
17382;SDS011;8809;51.892;8.384;2023-08-24T00:19:30;4.60;;;4.20;;
17382;SDS011;8809;51.892;8.384;2023-08-24T00:21:58;4.95;;;4.55;;
17382;SDS011;8809;51.892;8.384;2023-08-24T00:24:25;7.35;;;5.25;;
17382;SDS011;8809;51.892;8.384;2023-08-24T00:26:52;5.32;;;4.70;;
17382;SDS011;8809;51.892;8.384;2023-08-24T00:29:19;5.35;;;4.85;;
17382;SDS011;8809;51.892;8.384;2023-08-24T00:31:49;5.47;;;4.97;;
17382;SDS011;8809;51.892;8.384;2023-08-24T00:34:16;6.55;;;5.95;;
17382;SDS011;8809;51.892;8.384;2023-08-24T00:36:43;5.88;;;5.38;;
17382;SDS011;8809;51.892;8.384;2023-08-24T00:39:11;6.50;;;5.90;;
17382;SDS011;8809;51.892;8.384;2023-08-24T00:41:38;7.43;;;6.60;;
17382;SDS011;8809;51.892;8.384;2023-08-24T00:44:08;6.82;;;6.22;;
17382;SDS011;8809;51.892;8.384;2023-08-24T00:46:35;5.53;;;5.13;;
17382;SDS011;8809;51.892;8.384;2023-08-24T00:49:04;5.90;;;5.40;;
17382;SDS011;8809;51.892;8.384;2023-08-24T00:51:31;6.47;;;5.88;;
17382;SDS011;8809;51.892;8.384;2023-08-24T00:53:59;6.13;;;5.63;;
17382;SDS011;8809;51.892;8.384;2023-08-24T00:56:26;6.45;;;5.85;;
17382;SDS011;8809;51.892;8.384;2023-08-24T00:58:55;5.78;;;5.28;;
17382;SDS011;8809;51.892;8.384;2023-08-24T01:01:23;6.95;;;6.30;;
17382;SDS011;8809;51.892;8.384;2023-08-24T01:03:51;5.43;;;4.93;;
17382;SDS011;8809;51.892;8.384;2023-08-24T01:06:20;5.90;;;5.40;;
17382;SDS011;8809;51.892;8.384;2023-08-24T01:08:47;6.22;;;5.63;;
17382;SDS011;8809;51.892;8.384;2023-08-24T01:11:16;5.85;;;5.25;;
17382;SDS011;8809;51.892;8.384;2023-08-24T01:13:57;6.20;;;5.70;;
17382;SDS011;8809;51.892;8.384;2023-08-24T01:16:29;4.90;;;4.50;;
17382;SDS011;8809;51.892;8.384;2023-08-24T01:19:06;6.57;;;5.97;;
17382;SDS011;8809;51.892;8.384;2023-08-24T01:21:49;5.55;;;5.07;;
17382;SDS011;8809;51.892;8.384;2023-08-24T01:24:17;5.22;;;4.82;;
17382;SDS011;8809;51.892;8.384;2023-08-24T01:26:50;6.10;;;5.50;;
17382;SDS011;8809;51.892;8.384;2023-08-24T01:29:20;4.75;;;4.38;;
17382;SDS011;8809;51.892;8.384;2023-08-24T01:31:48;5.50;;;4.68;;
17382;SDS011;8809;51.892;8.384;2023-08-24T01:34:16;4.57;;;4.18;;
17382;SDS011;8809;51.892;8.384;2023-08-24T01:36:43;4.75;;;4.35;;
17382;SDS011;8809;51.892;8.384;2023-08-24T01:39:12;5.47;;;4.97;;
17382;SDS011;8809;51.892;8.384;2023-08-24T01:41:46;5.50;;;5.00;;
17382;SDS011;8809;51.892;8.384;2023-08-24T01:44:19;5.55;;;5.07;;
17382;SDS011;8809;51.892;8.384;2023-08-24T01:46:52;5.95;;;5.45;;
17382;SDS011;8809;51.892;8.384;2023-08-24T01:49:21;5.50;;;5.00;;
17382;SDS011;8809;51.892;8.384;2023-08-24T01:51:49;5.50;;;5.00;;
17382;SDS011;8809;51.892;8.384;2023-08-24T01:54:17;5.97;;;5.47;;
17382;SDS011;8809;51.892;8.384;2023-08-24T01:56:45;6.15;;;5.60;;
17382;SDS011;8809;51.892;8.384;2023-08-24T01:59:14;6.45;;;5.88;;
17382;SDS011;8809;51.892;8.384;2023-08-24T02:01:41;6.10;;;5.60;;
17382;SDS011;8809;51.892;8.384;2023-08-24T02:04:08;5.90;;;5.40;;
17382;SDS011;8809;51.892;8.384;2023-08-24T02:06:35;6.82;;;6.22;;
17382;SDS011;8809;51.892;8.384;2023-08-24T02:09:05;6.07;;;5.57;;
17382;SDS011;8809;51.892;8.384;2023-08-24T02:11:32;6.40;;;5.90;;
17382;SDS011;8809;51.892;8.384;2023-08-24T02:13:59;6.13;;;5.63;;
17382;SDS011;8809;51.892;8.384;2023-08-24T02:16:28;5.75;;;5.25;;
17382;SDS011;8809;51.892;8.384;2023-08-24T02:18:56;5.90;;;5.40;;
17382;SDS011;8809;51.892;8.384;2023-08-24T02:21:23;6.78;;;6.18;;
17382;SDS011;8809;51.892;8.384;2023-08-24T02:23:50;5.88;;;5.38;;
17382;SDS011;8809;51.892;8.384;2023-08-24T02:26:17;6.55;;;5.97;;
17382;SDS011;8809;51.892;8.384;2023-08-24T02:28:45;6.15;;;5.65;;
17382;SDS011;8809;51.892;8.384;2023-08-24T02:31:13;7.50;;;6.82;;
17382;SDS011;8809;51.892;8.384;2023-08-24T02:33:43;8.38;;;7.57;;
17382;SDS011;8809;51.892;8.384;2023-08-24T02:36:10;7.90;;;7.20;;
17382;SDS011;8809;51.892;8.384;2023-08-24T02:38:37;7.95;;;7.25;;
17382;SDS011;8809;51.892;8.384;2023-08-24T02:41:05;7.82;;;7.22;;
17382;SDS011;8809;51.892;8.384;2023-08-24T02:43:34;8.20;;;7.50;;
17382;SDS011;8809;51.892;8.384;2023-08-24T02:46:02;11.50;;;10.35;;
17382;SDS011;8809;51.892;8.384;2023-08-24T02:48:31;10.68;;;9.68;;
17382;SDS011;8809;51.892;8.384;2023-08-24T02:51:01;9.23;;;8.43;;
17382;SDS011;8809;51.892;8.384;2023-08-24T02:53:29;9.75;;;8.85;;
17382;SDS011;8809;51.892;8.384;2023-08-24T02:55:57;9.52;;;8.63;;
17382;SDS011;8809;51.892;8.384;2023-08-24T02:58:25;8.50;;;7.70;;
17382;SDS011;8809;51.892;8.384;2023-08-24T03:00:53;7.13;;;6.50;;
17382;SDS011;8809;51.892;8.384;2023-08-24T03:03:20;7.32;;;6.72;;
17382;SDS011;8809;51.892;8.384;2023-08-24T03:05:54;7.68;;;6.97;;
17382;SDS011;8809;51.892;8.384;2023-08-24T03:08:23;7.40;;;6.75;;
17382;SDS011;8809;51.892;8.384;2023-08-24T03:10:51;6.55;;;5.95;;
17382;SDS011;8809;51.892;8.384;2023-08-24T03:13:18;7.13;;;6.53;;
17382;SDS011;8809;51.892;8.384;2023-08-24T03:15:45;6.63;;;6.03;;
17382;SDS011;8809;51.892;8.384;2023-08-24T03:18:13;7.53;;;6.93;;
17382;SDS011;8809;51.892;8.384;2023-08-24T03:20:42;7.50;;;6.90;;
17382;SDS011;8809;51.892;8.384;2023-08-24T03:23:10;6.75;;;6.15;;
17382;SDS011;8809;51.892;8.384;2023-08-24T03:25:39;8.75;;;7.95;;
17382;SDS011;8809;51.892;8.384;2023-08-24T03:28:07;7.75;;;7.05;;
17382;SDS011;8809;51.892;8.384;2023-08-24T03:30:38;8.50;;;7.70;;
17382;SDS011;8809;51.892;8.384;2023-08-24T03:33:06;9.32;;;8.50;;
17382;SDS011;8809;51.892;8.384;2023-08-24T03:35:33;9.93;;;8.95;;
17382;SDS011;8809;51.892;8.384;2023-08-24T03:38:01;9.88;;;8.98;;
17382;SDS011;8809;51.892;8.384;2023-08-24T03:40:28;9.52;;;8.73;;
17382;SDS011;8809;51.892;8.384;2023-08-24T03:42:57;8.95;;;8.15;;
17382;SDS011;8809;51.892;8.384;2023-08-24T03:45:24;10.00;;;9.07;;
17382;SDS011;8809;51.892;8.384;2023-08-24T03:47:51;10.00;;;9.00;;
17382;SDS011;8809;51.892;8.384;2023-08-24T03:50:19;9.95;;;9.00;;
17382;SDS011;8809;51.892;8.384;2023-08-24T03:52:47;10.05;;;9.07;;
17382;SDS011;8809;51.892;8.384;2023-08-24T03:55:15;11.10;;;10.02;;
17382;SDS011;8809;51.892;8.384;2023-08-24T03:57:42;10.32;;;9.23;;
17382;SDS011;8809;51.892;8.384;2023-08-24T04:00:11;9.20;;;8.30;;
17382;SDS011;8809;51.892;8.384;2023-08-24T04:02:39;7.75;;;7.05;;
17382;SDS011;8809;51.892;8.384;2023-08-24T04:05:07;7.93;;;7.22;;
17382;SDS011;8809;51.892;8.384;2023-08-24T04:07:34;8.18;;;7.45;;
17382;SDS011;8809;51.892;8.384;2023-08-24T04:10:03;8.63;;;7.82;;
17382;SDS011;8809;51.892;8.384;2023-08-24T04:12:31;7.57;;;6.95;;
17382;SDS011;8809;51.892;8.384;2023-08-24T04:14:59;7.45;;;6.75;;
17382;SDS011;8809;51.892;8.384;2023-08-24T04:17:28;7.50;;;6.80;;
17382;SDS011;8809;51.892;8.384;2023-08-24T04:19:55;8.30;;;7.50;;
17382;SDS011;8809;51.892;8.384;2023-08-24T04:22:22;7.70;;;6.97;;
17382;SDS011;8809;51.892;8.384;2023-08-24T04:24:49;8.65;;;7.70;;
17382;SDS011;8809;51.892;8.384;2023-08-24T04:27:16;8.60;;;7.88;;
17382;SDS011;8809;51.892;8.384;2023-08-24T04:29:44;8.82;;;8.02;;
17382;SDS011;8809;51.892;8.384;2023-08-24T04:32:11;8.27;;;7.50;;
17382;SDS011;8809;51.892;8.384;2023-08-24T04:34:39;7.13;;;6.53;;
17382;SDS011;8809;51.892;8.384;2023-08-24T04:37:07;7.50;;;6.82;;
17382;SDS011;8809;51.892;8.384;2023-08-24T04:39:34;7.07;;;6.47;;
17382;SDS011;8809;51.892;8.384;2023-08-24T04:42:04;8.05;;;7.25;;
17382;SDS011;8809;51.892;8.384;2023-08-24T04:44:33;8.00;;;7.30;;
17382;SDS011;8809;51.892;8.384;2023-08-24T04:47:00;6.78;;;6.18;;
17382;SDS011;8809;51.892;8.384;2023-08-24T04:49:27;6.82;;;6.22;;
17382;SDS011;8809;51.892;8.384;2023-08-24T04:51:57;7.05;;;6.45;;
17382;SDS011;8809;51.892;8.384;2023-08-24T04:54:25;7.05;;;6.43;;
17382;SDS011;8809;51.892;8.384;2023-08-24T04:56:52;6.53;;;5.93;;
17382;SDS011;8809;51.892;8.384;2023-08-24T04:59:19;6.70;;;6.10;;
17382;SDS011;8809;51.892;8.384;2023-08-24T05:01:46;7.43;;;6.82;;
17382;SDS011;8809;51.892;8.384;2023-08-24T05:04:13;6.45;;;5.88;;
17382;SDS011;8809;51.892;8.384;2023-08-24T05:06:41;6.50;;;5.85;;
17382;SDS011;8809;51.892;8.384;2023-08-24T05:09:10;6.18;;;5.68;;
17382;SDS011;8809;51.892;8.384;2023-08-24T05:11:37;6.60;;;6.00;;
17382;SDS011;8809;51.892;8.384;2023-08-24T05:14:06;7.30;;;6.60;;
17382;SDS011;8809;51.892;8.384;2023-08-24T05:16:33;6.72;;;6.13;;
17382;SDS011;8809;51.892;8.384;2023-08-24T05:19:01;6.75;;;6.15;;
17382;SDS011;8809;51.892;8.384;2023-08-24T05:21:28;6.15;;;5.65;;
17382;SDS011;8809;51.892;8.384;2023-08-24T05:23:55;6.72;;;6.13;;
17382;SDS011;8809;51.892;8.384;2023-08-24T05:26:24;7.53;;;6.82;;
17382;SDS011;8809;51.892;8.384;2023-08-24T05:28:54;9.43;;;8.52;;
17382;SDS011;8809;51.892;8.384;2023-08-24T05:31:22;8.40;;;7.63;;
17382;SDS011;8809;51.892;8.384;2023-08-24T05:33:49;9.02;;;8.23;;
17382;SDS011;8809;51.892;8.384;2023-08-24T05:36:16;10.73;;;9.75;;
17382;SDS011;8809;51.892;8.384;2023-08-24T05:38:43;10.77;;;9.77;;
17382;SDS011;8809;51.892;8.384;2023-08-24T05:41:12;10.50;;;9.60;;
17382;SDS011;8809;51.892;8.384;2023-08-24T05:43:41;11.13;;;10.10;;
17382;SDS011;8809;51.892;8.384;2023-08-24T05:46:09;13.00;;;11.70;;
17382;SDS011;8809;51.892;8.384;2023-08-24T05:48:36;12.05;;;10.95;;
17382;SDS011;8809;51.892;8.384;2023-08-24T05:51:05;11.70;;;10.57;;
17382;SDS011;8809;51.892;8.384;2023-08-24T05:53:34;13.15;;;11.85;;
17382;SDS011;8809;51.892;8.384;2023-08-24T05:56:02;12.27;;;11.15;;
17382;SDS011;8809;51.892;8.384;2023-08-24T05:58:30;12.40;;;11.20;;
17382;SDS011;8809;51.892;8.384;2023-08-24T06:00:59;13.07;;;11.88;;
17382;SDS011;8809;51.892;8.384;2023-08-24T06:03:26;12.00;;;10.88;;
17382;SDS011;8809;51.892;8.384;2023-08-24T06:05:54;12.18;;;11.05;;
17382;SDS011;8809;51.892;8.384;2023-08-24T06:08:26;11.98;;;10.88;;
17382;SDS011;8809;51.892;8.384;2023-08-24T06:10:54;12.35;;;11.15;;
17382;SDS011;8809;51.892;8.384;2023-08-24T06:13:21;11.27;;;10.27;;
17382;SDS011;8809;51.892;8.384;2023-08-24T06:15:48;11.43;;;10.40;;
17382;SDS011;8809;51.892;8.384;2023-08-24T06:18:17;11.85;;;10.75;;
17382;SDS011;8809;51.892;8.384;2023-08-24T06:20:45;10.98;;;9.98;;
17382;SDS011;8809;51.892;8.384;2023-08-24T06:23:14;11.18;;;10.18;;
17382;SDS011;8809;51.892;8.384;2023-08-24T06:25:45;11.00;;;10.00;;
17382;SDS011;8809;51.892;8.384;2023-08-24T06:28:12;11.43;;;10.43;;
17382;SDS011;8809;51.892;8.384;2023-08-24T06:30:40;10.65;;;9.65;;
17382;SDS011;8809;51.892;8.384;2023-08-24T06:33:09;10.48;;;9.45;;
17382;SDS011;8809;51.892;8.384;2023-08-24T06:35:39;10.68;;;9.68;;
17382;SDS011;8809;51.892;8.384;2023-08-24T06:38:07;10.93;;;9.98;;
17382;SDS011;8809;51.892;8.384;2023-08-24T06:40:35;10.07;;;9.18;;
17382;SDS011;8809;51.892;8.384;2023-08-24T06:43:02;9.68;;;8.82;;
17382;SDS011;8809;51.892;8.384;2023-08-24T06:45:31;11.15;;;9.88;;
17382;SDS011;8809;51.892;8.384;2023-08-24T06:48:01;10.68;;;9.77;;
17382;SDS011;8809;51.892;8.384;2023-08-24T06:50:28;9.90;;;9.10;;
17382;SDS011;8809;51.892;8.384;2023-08-24T06:52:58;10.10;;;9.20;;
17382;SDS011;8809;51.892;8.384;2023-08-24T06:55:26;9.48;;;8.63;;
17382;SDS011;8809;51.892;8.384;2023-08-24T06:57:54;14.85;;;13.45;;
17382;SDS011;8809;51.892;8.384;2023-08-24T07:00:21;14.50;;;13.10;;
17382;SDS011;8809;51.892;8.384;2023-08-24T07:02:50;13.70;;;12.50;;
17382;SDS011;8809;51.892;8.384;2023-08-24T07:05:19;12.68;;;11.50;;
17382;SDS011;8809;51.892;8.384;2023-08-24T07:07:46;12.68;;;11.48;;
17382;SDS011;8809;51.892;8.384;2023-08-24T07:10:15;11.43;;;10.43;;
17382;SDS011;8809;51.892;8.384;2023-08-24T07:12:43;11.15;;;10.15;;
17382;SDS011;8809;51.892;8.384;2023-08-24T07:15:10;10.13;;;9.25;;
17382;SDS011;8809;51.892;8.384;2023-08-24T07:17:38;10.00;;;9.10;;
17382;SDS011;8809;51.892;8.384;2023-08-24T07:20:06;9.98;;;9.05;;
17382;SDS011;8809;51.892;8.384;2023-08-24T07:22:34;9.77;;;8.77;;
17382;SDS011;8809;51.892;8.384;2023-08-24T07:25:02;8.82;;;8.10;;
17382;SDS011;8809;51.892;8.384;2023-08-24T07:27:32;9.48;;;8.63;;
17382;SDS011;8809;51.892;8.384;2023-08-24T07:30:00;11.88;;;10.77;;
17382;SDS011;8809;51.892;8.384;2023-08-24T07:32:31;10.10;;;9.15;;
17382;SDS011;8809;51.892;8.384;2023-08-24T07:34:59;9.93;;;9.13;;
17382;SDS011;8809;51.892;8.384;2023-08-24T07:37:26;9.73;;;8.82;;
17382;SDS011;8809;51.892;8.384;2023-08-24T07:39:54;10.50;;;9.60;;
17382;SDS011;8809;51.892;8.384;2023-08-24T07:42:21;10.18;;;9.27;;
17382;SDS011;8809;51.892;8.384;2023-08-24T07:44:50;10.00;;;9.10;;
17382;SDS011;8809;51.892;8.384;2023-08-24T07:47:17;9.60;;;8.70;;
17382;SDS011;8809;51.892;8.384;2023-08-24T07:49:44;12.98;;;11.77;;
17382;SDS011;8809;51.892;8.384;2023-08-24T07:52:11;11.20;;;10.10;;
17382;SDS011;8809;51.892;8.384;2023-08-24T07:54:39;10.38;;;9.45;;
17382;SDS011;8809;51.892;8.384;2023-08-24T07:57:07;9.75;;;8.85;;
17382;SDS011;8809;51.892;8.384;2023-08-24T07:59:36;11.75;;;10.65;;
17382;SDS011;8809;51.892;8.384;2023-08-24T08:02:06;11.32;;;10.32;;
17382;SDS011;8809;51.892;8.384;2023-08-24T08:04:35;10.15;;;9.25;;
17382;SDS011;8809;51.892;8.384;2023-08-24T08:07:02;10.77;;;9.88;;
17382;SDS011;8809;51.892;8.384;2023-08-24T08:09:30;9.57;;;8.77;;
17382;SDS011;8809;51.892;8.384;2023-08-24T08:11:57;14.55;;;13.13;;
17382;SDS011;8809;51.892;8.384;2023-08-24T08:14:25;13.25;;;12.02;;
17382;SDS011;8809;51.892;8.384;2023-08-24T08:16:53;11.07;;;10.07;;
17382;SDS011;8809;51.892;8.384;2023-08-24T08:19:22;10.93;;;9.93;;
17382;SDS011;8809;51.892;8.384;2023-08-24T08:21:50;11.70;;;10.57;;
17382;SDS011;8809;51.892;8.384;2023-08-24T08:24:18;11.27;;;10.35;;
17382;SDS011;8809;51.892;8.384;2023-08-24T08:26:45;10.18;;;9.20;;
17382;SDS011;8809;51.892;8.384;2023-08-24T08:29:13;9.13;;;8.27;;
17382;SDS011;8809;51.892;8.384;2023-08-24T08:31:40;12.93;;;11.68;;
17382;SDS011;8809;51.892;8.384;2023-08-24T08:34:07;11.88;;;10.70;;
17382;SDS011;8809;51.892;8.384;2023-08-24T08:36:38;10.25;;;9.35;;
17382;SDS011;8809;51.892;8.384;2023-08-24T08:39:06;9.02;;;8.23;;
17382;SDS011;8809;51.892;8.384;2023-08-24T08:41:38;9.80;;;8.93;;
17382;SDS011;8809;51.892;8.384;2023-08-24T08:44:09;8.40;;;7.63;;
17382;SDS011;8809;51.892;8.384;2023-08-24T08:46:39;8.30;;;7.50;;
17382;SDS011;8809;51.892;8.384;2023-08-24T08:49:08;7.70;;;7.03;;
17382;SDS011;8809;51.892;8.384;2023-08-24T08:51:37;7.95;;;7.15;;
17382;SDS011;8809;51.892;8.384;2023-08-24T08:54:05;7.60;;;6.97;;
17382;SDS011;8809;51.892;8.384;2023-08-24T08:56:32;8.45;;;7.75;;
17382;SDS011;8809;51.892;8.384;2023-08-24T08:59:00;7.43;;;6.82;;
17382;SDS011;8809;51.892;8.384;2023-08-24T09:01:28;7.80;;;7.10;;
17382;SDS011;8809;51.892;8.384;2023-08-24T09:03:56;7.28;;;6.65;;
17382;SDS011;8809;51.892;8.384;2023-08-24T09:06:24;8.73;;;8.00;;
17382;SDS011;8809;51.892;8.384;2023-08-24T09:08:53;7.60;;;7.00;;
17382;SDS011;8809;51.892;8.384;2023-08-24T09:11:21;8.27;;;7.57;;
17382;SDS011;8809;51.892;8.384;2023-08-24T09:13:49;6.82;;;6.25;;
17382;SDS011;8809;51.892;8.384;2023-08-24T09:16:17;7.32;;;6.70;;
17382;SDS011;8809;51.892;8.384;2023-08-24T09:18:45;6.82;;;6.22;;
17382;SDS011;8809;51.892;8.384;2023-08-24T09:21:15;7.03;;;6.40;;
17382;SDS011;8809;51.892;8.384;2023-08-24T09:23:43;7.13;;;6.30;;
17382;SDS011;8809;51.892;8.384;2023-08-24T09:26:13;6.03;;;5.53;;
17382;SDS011;8809;51.892;8.384;2023-08-24T09:28:42;9.02;;;7.65;;
17382;SDS011;8809;51.892;8.384;2023-08-24T09:31:11;8.07;;;7.10;;
17382;SDS011;8809;51.892;8.384;2023-08-24T09:33:42;7.72;;;6.75;;
17382;SDS011;8809;51.892;8.384;2023-08-24T09:36:10;5.75;;;5.30;;
17382;SDS011;8809;51.892;8.384;2023-08-24T09:38:45;5.78;;;5.28;;
17382;SDS011;8809;51.892;8.384;2023-08-24T09:41:16;5.60;;;5.10;;
17382;SDS011;8809;51.892;8.384;2023-08-24T09:43:43;4.78;;;4.38;;
17382;SDS011;8809;51.892;8.384;2023-08-24T09:46:11;4.93;;;4.53;;
17382;SDS011;8809;51.892;8.384;2023-08-24T09:48:38;4.35;;;4.03;;
17382;SDS011;8809;51.892;8.384;2023-08-24T09:51:06;7.38;;;5.45;;
17382;SDS011;8809;51.892;8.384;2023-08-24T09:53:37;5.63;;;4.50;;
17382;SDS011;8809;51.892;8.384;2023-08-24T09:56:06;4.78;;;4.10;;
17382;SDS011;8809;51.892;8.384;2023-08-24T09:58:39;5.28;;;4.20;;
17382;SDS011;8809;51.892;8.384;2023-08-24T10:01:08;5.30;;;4.22;;
17382;SDS011;8809;51.892;8.384;2023-08-24T10:03:37;6.13;;;4.78;;
17382;SDS011;8809;51.892;8.384;2023-08-24T10:06:06;4.57;;;4.20;;
17382;SDS011;8809;51.892;8.384;2023-08-24T10:08:39;4.78;;;4.30;;
17382;SDS011;8809;51.892;8.384;2023-08-24T10:11:10;4.82;;;4.32;;
17382;SDS011;8809;51.892;8.384;2023-08-24T10:13:47;4.65;;;3.72;;
17382;SDS011;8809;51.892;8.384;2023-08-24T10:16:26;3.67;;;3.38;;
17382;SDS011;8809;51.892;8.384;2023-08-24T10:18:55;3.30;;;2.88;;
17382;SDS011;8809;51.892;8.384;2023-08-24T10:21:24;3.30;;;3.00;;
17382;SDS011;8809;51.892;8.384;2023-08-24T10:23:53;2.72;;;2.53;;
17382;SDS011;8809;51.892;8.384;2023-08-24T10:26:24;2.88;;;2.63;;
17382;SDS011;8809;51.892;8.384;2023-08-24T10:28:53;4.30;;;2.83;;
17382;SDS011;8809;51.892;8.384;2023-08-24T10:31:20;2.97;;;2.67;;
17382;SDS011;8809;51.892;8.384;2023-08-24T10:33:48;3.45;;;2.80;;
17382;SDS011;8809;51.892;8.384;2023-08-24T10:36:17;3.20;;;2.90;;
17382;SDS011;8809;51.892;8.384;2023-08-24T10:38:46;3.65;;;3.25;;
17382;SDS011;8809;51.892;8.384;2023-08-24T10:41:13;3.55;;;3.25;;
17382;SDS011;8809;51.892;8.384;2023-08-24T10:43:41;4.22;;;3.42;;
17382;SDS011;8809;51.892;8.384;2023-08-24T10:46:19;2.60;;;2.38;;
17382;SDS011;8809;51.892;8.384;2023-08-24T10:48:58;2.97;;;2.78;;
17382;SDS011;8809;51.892;8.384;2023-08-24T10:51:26;2.60;;;2.30;;
17382;SDS011;8809;51.892;8.384;2023-08-24T10:53:55;2.85;;;2.60;;
17382;SDS011;8809;51.892;8.384;2023-08-24T10:56:35;2.80;;;2.55;;
17382;SDS011;8809;51.892;8.384;2023-08-24T10:59:10;2.35;;;2.15;;
17382;SDS011;8809;51.892;8.384;2023-08-24T11:01:43;2.35;;;2.15;;
17382;SDS011;8809;51.892;8.384;2023-08-24T11:04:22;2.45;;;2.22;;
17382;SDS011;8809;51.892;8.384;2023-08-24T11:06:53;2.47;;;2.20;;
17382;SDS011;8809;51.892;8.384;2023-08-24T11:09:22;2.22;;;2.03;;
17382;SDS011;8809;51.892;8.384;2023-08-24T11:11:56;3.13;;;2.67;;
17382;SDS011;8809;51.892;8.384;2023-08-24T11:14:25;2.88;;;2.35;;
17382;SDS011;8809;51.892;8.384;2023-08-24T11:16:55;2.30;;;2.10;;
17382;SDS011;8809;51.892;8.384;2023-08-24T11:19:24;2.40;;;2.20;;
17382;SDS011;8809;51.892;8.384;2023-08-24T11:21:55;2.15;;;1.95;;
17382;SDS011;8809;51.892;8.384;2023-08-24T11:24:25;2.15;;;1.95;;
17382;SDS011;8809;51.892;8.384;2023-08-24T11:26:52;3.47;;;2.70;;
17382;SDS011;8809;51.892;8.384;2023-08-24T11:29:20;3.15;;;2.28;;
17382;SDS011;8809;51.892;8.384;2023-08-24T11:31:47;2.50;;;2.20;;
17382;SDS011;8809;51.892;8.384;2023-08-24T11:34:16;2.85;;;2.30;;
17382;SDS011;8809;51.892;8.384;2023-08-24T11:36:44;2.10;;;1.80;;
17382;SDS011;8809;51.892;8.384;2023-08-24T11:39:14;2.65;;;2.10;;
17382;SDS011;8809;51.892;8.384;2023-08-24T11:41:45;2.80;;;2.05;;
17382;SDS011;8809;51.892;8.384;2023-08-24T11:44:23;2.35;;;2.15;;
17382;SDS011;8809;51.892;8.384;2023-08-24T11:46:50;2.80;;;2.20;;
17382;SDS011;8809;51.892;8.384;2023-08-24T11:49:19;2.58;;;2.20;;
17382;SDS011;8809;51.892;8.384;2023-08-24T11:51:47;3.38;;;2.53;;
17382;SDS011;8809;51.892;8.384;2023-08-24T11:54:18;3.58;;;2.53;;
17382;SDS011;8809;51.892;8.384;2023-08-24T11:56:46;3.22;;;2.28;;
17382;SDS011;8809;51.892;8.384;2023-08-24T11:59:14;2.40;;;2.20;;
17382;SDS011;8809;51.892;8.384;2023-08-24T12:01:43;2.50;;;2.20;;
17382;SDS011;8809;51.892;8.384;2023-08-24T12:04:12;2.75;;;2.10;;
17382;SDS011;8809;51.892;8.384;2023-08-24T12:06:40;2.38;;;1.88;;
17382;SDS011;8809;51.892;8.384;2023-08-24T12:09:08;3.03;;;2.17;;
17382;SDS011;8809;51.892;8.384;2023-08-24T12:11:36;2.75;;;2.17;;
17382;SDS011;8809;51.892;8.384;2023-08-24T12:14:04;2.45;;;2.15;;
17382;SDS011;8809;51.892;8.384;2023-08-24T12:16:35;2.38;;;2.17;;
17382;SDS011;8809;51.892;8.384;2023-08-24T12:19:06;4.03;;;2.35;;
17382;SDS011;8809;51.892;8.384;2023-08-24T12:21:35;3.28;;;2.05;;
17382;SDS011;8809;51.892;8.384;2023-08-24T12:24:05;4.35;;;2.38;;
17382;SDS011;8809;51.892;8.384;2023-08-24T12:26:34;2.58;;;2.13;;
17382;SDS011;8809;51.892;8.384;2023-08-24T12:29:03;2.53;;;2.30;;
17382;SDS011;8809;51.892;8.384;2023-08-24T12:31:31;2.22;;;2.03;;
17382;SDS011;8809;51.892;8.384;2023-08-24T12:33:59;2.50;;;2.30;;
17382;SDS011;8809;51.892;8.384;2023-08-24T12:36:28;2.08;;;1.88;;
17382;SDS011;8809;51.892;8.384;2023-08-24T12:38:57;2.20;;;1.90;;
17382;SDS011;8809;51.892;8.384;2023-08-24T12:41:26;2.28;;;2.08;;
17382;SDS011;8809;51.892;8.384;2023-08-24T12:43:53;3.58;;;2.13;;
17382;SDS011;8809;51.892;8.384;2023-08-24T12:46:21;2.85;;;2.30;;
17382;SDS011;8809;51.892;8.384;2023-08-24T12:48:49;2.92;;;2.35;;
17382;SDS011;8809;51.892;8.384;2023-08-24T12:51:16;2.92;;;2.53;;
17382;SDS011;8809;51.892;8.384;2023-08-24T12:53:44;3.10;;;2.05;;
17382;SDS011;8809;51.892;8.384;2023-08-24T12:56:11;3.28;;;2.20;;
17382;SDS011;8809;51.892;8.384;2023-08-24T12:58:40;2.40;;;2.20;;
17382;SDS011;8809;51.892;8.384;2023-08-24T13:01:07;5.85;;;2.92;;
17382;SDS011;8809;51.892;8.384;2023-08-24T13:03:34;2.65;;;2.17;;
17382;SDS011;8809;51.892;8.384;2023-08-24T13:06:02;2.95;;;2.58;;
17382;SDS011;8809;51.892;8.384;2023-08-24T13:08:29;3.55;;;2.30;;
17382;SDS011;8809;51.892;8.384;2023-08-24T13:10:58;3.38;;;2.33;;
17382;SDS011;8809;51.892;8.384;2023-08-24T13:13:26;2.45;;;2.17;;
17382;SDS011;8809;51.892;8.384;2023-08-24T13:15:55;2.65;;;1.80;;
17382;SDS011;8809;51.892;8.384;2023-08-24T13:18:22;2.10;;;1.90;;
17382;SDS011;8809;51.892;8.384;2023-08-24T13:20:50;2.25;;;2.05;;
17382;SDS011;8809;51.892;8.384;2023-08-24T13:23:17;4.60;;;2.10;;
17382;SDS011;8809;51.892;8.384;2023-08-24T13:25:44;2.35;;;1.90;;
17382;SDS011;8809;51.892;8.384;2023-08-24T13:28:12;3.17;;;2.30;;
17382;SDS011;8809;51.892;8.384;2023-08-24T13:30:39;2.50;;;2.05;;
17382;SDS011;8809;51.892;8.384;2023-08-24T13:33:10;2.47;;;2.22;;
17382;SDS011;8809;51.892;8.384;2023-08-24T13:35:38;2.58;;;1.92;;
17382;SDS011;8809;51.892;8.384;2023-08-24T13:38:06;5.00;;;2.33;;
17382;SDS011;8809;51.892;8.384;2023-08-24T13:40:33;4.05;;;2.30;;
17382;SDS011;8809;51.892;8.384;2023-08-24T13:43:03;2.53;;;2.33;;
17382;SDS011;8809;51.892;8.384;2023-08-24T13:45:31;2.33;;;2.03;;
17382;SDS011;8809;51.892;8.384;2023-08-24T13:48:00;2.05;;;1.88;;
17382;SDS011;8809;51.892;8.384;2023-08-24T13:50:29;2.70;;;2.20;;
17382;SDS011;8809;51.892;8.384;2023-08-24T13:52:57;3.22;;;2.20;;
17382;SDS011;8809;51.892;8.384;2023-08-24T13:55:24;2.97;;;1.85;;
17382;SDS011;8809;51.892;8.384;2023-08-24T13:57:52;2.80;;;2.00;;
17382;SDS011;8809;51.892;8.384;2023-08-24T14:00:20;4.05;;;2.20;;
17382;SDS011;8809;51.892;8.384;2023-08-24T14:02:48;2.20;;;1.73;;
17382;SDS011;8809;51.892;8.384;2023-08-24T14:05:16;2.25;;;2.05;;
17382;SDS011;8809;51.892;8.384;2023-08-24T14:07:51;2.67;;;1.83;;
17382;SDS011;8809;51.892;8.384;2023-08-24T14:10:19;2.75;;;1.77;;
17382;SDS011;8809;51.892;8.384;2023-08-24T14:12:47;2.95;;;2.28;;
17382;SDS011;8809;51.892;8.384;2023-08-24T14:15:16;2.97;;;2.17;;
17382;SDS011;8809;51.892;8.384;2023-08-24T14:17:44;3.40;;;2.30;;
17382;SDS011;8809;51.892;8.384;2023-08-24T14:20:11;3.88;;;2.10;;
17382;SDS011;8809;51.892;8.384;2023-08-24T14:22:39;4.97;;;2.58;;
17382;SDS011;8809;51.892;8.384;2023-08-24T14:25:08;2.55;;;2.20;;
17382;SDS011;8809;51.892;8.384;2023-08-24T14:27:35;3.40;;;2.35;;
17382;SDS011;8809;51.892;8.384;2023-08-24T14:30:05;3.28;;;2.03;;
17382;SDS011;8809;51.892;8.384;2023-08-24T14:32:33;3.28;;;2.42;;
17382;SDS011;8809;51.892;8.384;2023-08-24T14:35:01;2.55;;;2.05;;
17382;SDS011;8809;51.892;8.384;2023-08-24T14:37:29;2.67;;;2.20;;
17382;SDS011;8809;51.892;8.384;2023-08-24T14:39:58;4.03;;;2.45;;
17382;SDS011;8809;51.892;8.384;2023-08-24T14:42:27;3.15;;;2.38;;
17382;SDS011;8809;51.892;8.384;2023-08-24T14:44:54;4.05;;;2.25;;
17382;SDS011;8809;51.892;8.384;2023-08-24T14:47:21;3.22;;;2.47;;
17382;SDS011;8809;51.892;8.384;2023-08-24T14:49:49;3.20;;;2.30;;
17382;SDS011;8809;51.892;8.384;2023-08-24T14:52:16;2.97;;;2.50;;
17382;SDS011;8809;51.892;8.384;2023-08-24T14:54:46;5.00;;;4.10;;
17382;SDS011;8809;51.892;8.384;2023-08-24T14:57:13;8.35;;;7.53;;
17382;SDS011;8809;51.892;8.384;2023-08-24T14:59:44;12.23;;;11.02;;
17382;SDS011;8809;51.892;8.384;2023-08-24T15:02:15;15.07;;;13.68;;
17382;SDS011;8809;51.892;8.384;2023-08-24T15:04:42;17.20;;;15.52;;
17382;SDS011;8809;51.892;8.384;2023-08-24T15:07:10;17.95;;;16.20;;